| time (UTC) | temp C | wind direction | speed KPH | gust KPH | rain 1hr cm | rain 24hr cm | rain mn cm | humidity % | barometer mb |
| 20260510043404 | 25 | 65 | 9.7 | 19.3 | 0.00 | 0.00 | 0.00 | 90 | 1010.2 |
| 20260510041404 | 25 | 55 | 8.0 | 14.5 | 0.00 | 0.00 | 0.00 | 89 | 1010.2 |
| 20260510040904 | 25 | 63 | 8.0 | 12.9 | 0.00 | 0.00 | 0.00 | 89 | 1010.1 |
| 20260510035904 | 25 | 98 | 4.8 | 9.7 | 0.00 | 0.00 | 0.00 | 88 | 1010.0 |
| 20260510035405 | 25 | 64 | 8.0 | 16.1 | 0.00 | 0.00 | 0.00 | 88 | 1010.0 |
| 20260510032404 | 26 | 104 | 8.0 | 16.1 | 0.00 | 0.00 | 0.00 | 86 | 1010.0 |
| 20260510030904 | 26 | 62 | 11.3 | 16.1 | 0.00 | 0.00 | 0.00 | 85 | 1010.1 |
| 20260510025905 | 26 | 40 | 9.7 | 19.3 | 0.00 | 0.00 | 0.00 | 84 | 1010.0 |
| 20260510025404 | 26 | 56 | 9.7 | 20.9 | 0.00 | 0.00 | 0.00 | 84 | 1009.9 |
| 20260510022904 | 27 | 50 | 8.0 | 14.5 | 0.00 | 0.00 | 0.00 | 78 | 1009.1 |
| 20260510022404 | 27 | 72 | 8.0 | 19.3 | 0.00 | 0.00 | 0.00 | 77 | 1009.0 |
| 20260510020904 | 27 | 63 | 8.0 | 14.5 | 0.00 | 0.00 | 0.00 | 76 | 1008.3 |
| 20260510020404 | 27 | 74 | 4.8 | 9.7 | 0.00 | 0.00 | 0.00 | 76 | 1008.3 |
| 20260510015905 | 27 | 88 | 6.4 | 16.1 | 0.00 | 0.00 | 0.00 | 75 | 1008.2 |
| 20260510013905 | 27 | 99 | 6.4 | 16.1 | 0.00 | 0.00 | 0.00 | 73 | 1007.4 |
| 20260510013404 | 27 | 107 | 8.0 | 14.5 | 0.00 | 0.00 | 0.00 | 73 | 1007.4 |
| 20260510011904 | 28 | 126 | 8.0 | 16.1 | 0.00 | 0.00 | 0.00 | 70 | 1007.3 |
| 20260510011404 | 28 | 99 | 4.8 | 12.9 | 0.00 | 0.00 | 0.00 | 69 | 1007.2 |
| 20260510010404 | 28 | 132 | 8.0 | 19.3 | 0.00 | 0.00 | 0.00 | 66 | 1006.5 |
| 20260510005904 | 28 | 116 | 9.7 | 14.5 | 0.00 | 0.00 | 0.00 | 65 | 1006.5 |
| 20260510004904 | 28 | 119 | 8.0 | 12.9 | 0.00 | 0.00 | 0.00 | 62 | 1007.0 |
| 20260510004404 | 29 | 144 | 4.8 | 12.9 | 0.00 | 0.00 | 0.00 | 61 | 1007.0 |
| 20260510003405 | 29 | 119 | 8.0 | 19.3 | 0.00 | 0.00 | 0.00 | 61 | 1006.7 |
| 20260510001404 | 30 | 167 | 4.8 | 12.9 | 0.00 | 0.00 | 0.00 | 64 | 1006.7 |
| 20260509235904 | 30 | 117 | 8.0 | 14.5 | 0.00 | 0.00 | 0.00 | 64 | 1006.2 |
| 20260509234405 | 31 | 166 | 4.8 | 8.0 | 0.00 | 0.00 | 0.00 | 62 | 1006.2 |
| 20260509233904 | 31 | 165 | 3.2 | 9.7 | 0.00 | 0.00 | 0.00 | 61 | 1006.3 |
| 20260509232904 | 32 | 157 | 4.8 | 9.7 | 0.00 | 0.00 | 0.00 | 61 | 1006.1 |
| 20260509232404 | 32 | 171 | 4.8 | 9.7 | 0.00 | 0.00 | 0.00 | 59 | 1006.1 |
| 20260509231904 | 32 | 182 | 4.8 | 9.7 | 0.00 | 0.00 | 0.00 | 59 | 1006.1 |
| 20260509225904 | 33 | 128 | 4.8 | 11.3 | 0.00 | 0.00 | 0.00 | 60 | 1006.2 |
| 20260509225404 | 33 | 117 | 3.2 | 11.3 | 0.00 | 0.00 | 0.00 | 60 | 1006.1 |
| 20260509224904 | 33 | 119 | 4.8 | 9.7 | 0.00 | 0.00 | 0.00 | 61 | 1006.0 |
| 20260509224404 | 33 | 116 | 4.8 | 11.3 | 0.00 | 0.00 | 0.00 | 60 | 1006.0 |
| 20260509223905 | 33 | 114 | 3.2 | 12.9 | 0.00 | 0.00 | 0.00 | 61 | 1005.9 |
| 20260509223404 | 33 | 172 | 6.4 | 12.9 | 0.00 | 0.00 | 0.00 | 59 | 1005.9 |
| 20260509221904 | 33 | 145 | 4.8 | 9.7 | 0.00 | 0.00 | 0.00 | 58 | 1005.9 |
| 20260509221404 | 33 | 201 | 0.0 | 4.8 | 0.00 | 0.00 | 0.00 | 58 | 1005.9 |
| 20260509220405 | 33 | 172 | 4.8 | 9.7 | 0.00 | 0.00 | 0.00 | 57 | 1006.0 |
| 20260509215904 | 33 | 260 | 1.6 | 4.8 | 0.00 | 0.00 | 0.00 | 56 | 1005.9 |
| 20260509215404 | 33 | 41 | 4.8 | 11.3 | 0.00 | 0.00 | 0.00 | 57 | 1005.9 |
| 20260509214904 | 33 | 110 | 4.8 | 12.9 | 0.00 | 0.00 | 0.00 | 58 | 1005.9 |
| 20260509213904 | 35 | 119 | 3.2 | 8.0 | 0.00 | 0.00 | 0.00 | 55 | 1005.9 |
| 20260509213404 | 35 | 119 | 3.2 | 9.7 | 0.00 | 0.00 | 0.00 | 53 | 1005.9 |
| 20260509212904 | 35 | 158 | 3.2 | 8.0 | 0.00 | 0.00 | 0.00 | 54 | 1005.9 |
| 20260509212404 | 35 | 139 | 3.2 | 8.0 | 0.00 | 0.00 | 0.00 | 54 | 1005.8 |
| 20260509211904 | 35 | 203 | 1.6 | 3.2 | 0.00 | 0.00 | 0.00 | 55 | 1005.8 |
| 20260509211404 | 35 | 300 | 3.2 | 8.0 | 0.00 | 0.00 | 0.00 | 52 | 1005.8 |
| 20260509210404 | 35 | 182 | 1.6 | 4.8 | 0.00 | 0.00 | 0.00 | 57 | 1005.9 |
| 20260509205404 | 35 | 244 | 3.2 | 4.8 | 0.00 | 0.00 | 0.00 | 57 | 1006.2 |
| 20260509204905 | 34 | 117 | 1.6 | 8.0 | 0.00 | 0.00 | 0.00 | 60 | 1006.1 |
| 20260509202904 | 33 | 251 | 1.6 | 8.0 | 0.00 | 0.00 | 0.00 | 56 | 1006.4 |
| 20260509202404 | 34 | 241 | 1.6 | 8.0 | 0.00 | 0.00 | 0.00 | 56 | 1006.4 |
| 20260509201404 | 33 | 146 | 1.6 | 4.8 | 0.00 | 0.00 | 0.00 | 59 | 1006.5 |
| 20260509200904 | 33 | 64 | 1.6 | 4.8 | 0.00 | 0.00 | 0.00 | 64 | 1006.5 |
| 20260509195904 | 33 | 201 | 1.6 | 4.8 | 0.00 | 0.00 | 0.00 | 62 | 1006.7 |
| 20260509194404 | 32 | 258 | 0.0 | 4.8 | 0.00 | 0.00 | 0.00 | 63 | 1006.7 |
| 20260509193403 | 32 | 296 | 3.2 | 9.7 | 0.00 | 0.00 | 0.00 | 62 | 1006.8 |
| 20260509185904 | 32 | 206 | 1.6 | 4.8 | 0.00 | 0.00 | 0.00 | 70 | 1007.0 |
| 20260509184904 | 32 | 203 | 1.6 | 8.0 | 0.00 | 0.00 | 0.00 | 69 | 1007.2 |
| 20260509182904 | 31 | 96 | 3.2 | 11.3 | 0.00 | 0.00 | 0.00 | 76 | 1007.5 |
| 20260509181404 | 31 | 160 | 3.2 | 9.7 | 0.00 | 0.00 | 0.00 | 75 | 1007.8 |
| 20260509180904 | 30 | 165 | 4.8 | 11.3 | 0.00 | 0.00 | 0.00 | 78 | 1007.9 |
| 20260509175404 | 30 | 179 | 1.6 | 8.0 | 0.00 | 0.00 | 0.00 | 80 | 1008.4 |
| 20260509174904 | 29 | 187 | 3.2 | 9.7 | 0.00 | 0.00 | 0.00 | 79 | 1008.4 |
| 20260509174404 | 29 | 185 | 3.2 | 9.7 | 0.00 | 0.00 | 0.00 | 83 | 1008.6 |
| 20260509173404 | 28 | 229 | 0.0 | 4.8 | 0.00 | 0.00 | 0.00 | 80 | 1008.7 |
| 20260509172403 | 28 | 203 | 1.6 | 4.8 | 0.00 | 0.00 | 0.00 | 81 | 1008.7 |
| 20260509171904 | 28 | 204 | 1.6 | 4.8 | 0.00 | 0.00 | 0.00 | 81 | 1008.8 |
| 20260509171404 | 28 | 192 | 1.6 | 9.7 | 0.00 | 0.00 | 0.00 | 82 | 1008.7 |
| 20260509170404 | 28 | 172 | 1.6 | 4.8 | 0.00 | 0.00 | 0.00 | 82 | 1008.9 |
| 20260509164904 | 28 | 178 | 4.8 | 11.3 | 0.00 | 0.00 | 0.00 | 85 | 1008.9 |
| 20260509163904 | 28 | 236 | 1.6 | 8.0 | 0.00 | 0.00 | 0.00 | 84 | 1008.9 |
| 20260509163404 | 28 | 223 | 0.0 | 0.0 | 0.00 | 0.00 | 0.00 | 84 | 1008.8 |
| 20260509162904 | 28 | 254 | 0.0 | 4.8 | 0.00 | 0.00 | 0.00 | 84 | 1008.7 |
| 20260509161903 | 28 | 211 | 1.6 | 3.2 | 0.00 | 0.00 | 0.00 | 84 | 1008.6 |
| 20260509161404 | 28 | 173 | 1.6 | 8.0 | 0.00 | 0.00 | 0.00 | 84 | 1008.7 |
| 20260509155903 | 28 | 304 | 0.0 | 3.2 | 0.00 | 0.00 | 0.00 | 87 | 1008.6 |
| 20260509155405 | 27 | 194 | 1.6 | 4.8 | 0.00 | 0.00 | 0.00 | 88 | 1008.6 |
| 20260509153904 | 27 | 296 | 0.0 | 0.0 | 0.00 | 0.00 | 0.00 | 91 | 1008.8 |
| 20260509153404 | 27 | 39 | 0.0 | 4.8 | 0.00 | 0.00 | 0.00 | 92 | 1008.4 |
| 20260509152404 | 26 | 108 | 3.2 | 8.0 | 0.00 | 0.00 | 0.00 | 93 | 1008.2 |
| 20260509150904 | 26 | 111 | 1.6 | 4.8 | 0.00 | 0.00 | 0.00 | 94 | 1008.3 |
| 20260509145903 | 25 | 111 | 3.2 | 9.7 | 0.00 | 0.00 | 0.00 | 94 | 1008.2 |
| 20260509145404 | 25 | 114 | 3.2 | 9.7 | 0.00 | 0.00 | 0.00 | 94 | 1008.2 |
| 20260509144904 | 25 | 74 | 6.4 | 11.3 | 0.00 | 0.00 | 0.00 | 95 | 1008.4 |
| 20260509144404 | 25 | 59 | 3.2 | 8.0 | 0.00 | 0.00 | 0.00 | 95 | 1008.4 |
| 20260509142904 | 25 | 115 | 3.2 | 8.0 | 0.00 | 0.00 | 0.00 | 95 | 1008.3 |
| 20260509142403 | 25 | 114 | 3.2 | 8.0 | 0.00 | 0.00 | 0.00 | 96 | 1008.3 |
| 20260509141904 | 25 | 116 | 4.8 | 9.7 | 0.00 | 0.00 | 0.00 | 96 | 1008.3 |
| 20260509141404 | 25 | 148 | 1.6 | 4.8 | 0.00 | 0.00 | 0.00 | 96 | 1008.4 |
| 20260509140905 | 25 | 127 | 1.6 | 4.8 | 0.00 | 0.00 | 0.00 | 96 | 1008.2 |
| 20260509134405 | 25 | 226 | 1.6 | 4.8 | 0.00 | 0.00 | 0.00 | 97 | 1008.7 |
| 20260509133906 | 25 | 218 | 0.0 | 4.8 | 0.00 | 0.00 | 0.00 | 97 | 1008.7 |
| 20260509132906 | 25 | 184 | 0.0 | 1.6 | 0.00 | 0.00 | 0.00 | 97 | 1008.6 |
| 20260509131905 | 25 | 184 | 0.0 | 4.8 | 0.00 | 0.00 | 0.00 | 97 | 1008.7 |
| 20260509130905 | 25 | 182 | 3.2 | 9.7 | 0.00 | 0.00 | 0.00 | 97 | 1008.7 |
| 20260509124405 | 24 | 45 | 1.6 | 8.0 | 0.00 | 0.00 | 0.00 | 97 | 1008.7 |
| 20260509123406 | 24 | 183 | 1.6 | 3.2 | 0.00 | 0.00 | 0.00 | 97 | 1008.7 |
| 20260509121905 | 24 | 241 | 0.0 | 1.6 | 0.00 | 0.00 | 0.00 | 97 | 1008.4 |
| 20260509121406 | 24 | 65 | 0.0 | 0.0 | 0.00 | 0.00 | 0.00 | 97 | 1008.3 |
| 20260509120905 | 24 | 65 | 0.0 | 0.0 | 0.00 | 0.00 | 0.00 | 97 | 1008.2 |
| 20260509115905 | 24 | 58 | 0.0 | 1.6 | 0.00 | 0.00 | 0.00 | 97 | 1008.4 |
| 20260509114905 | 24 | 268 | 0.0 | 1.6 | 0.00 | 0.00 | 0.00 | 97 | 1008.4 |
| 20260509112906 | 24 | 203 | 0.0 | 0.0 | 0.00 | 0.00 | 0.00 | 97 | 1008.4 |
| 20260509112405 | 24 | 203 | 0.0 | 0.0 | 0.00 | 0.00 | 0.00 | 96 | 1008.3 |
| 20260509111906 | 24 | 203 | 0.0 | 0.0 | 0.00 | 0.00 | 0.00 | 96 | 1008.2 |
| 20260509110906 | 24 | 298 | 0.0 | 0.0 | 0.00 | 0.00 | 0.00 | 96 | 1008.1 |
| 20260509110406 | 24 | 80 | 0.0 | 0.0 | 0.00 | 0.00 | 0.00 | 96 | 1007.9 |
| 20260509105906 | 24 | 80 | 0.0 | 0.0 | 0.00 | 0.00 | 0.00 | 96 | 1007.7 |
| 20260509103905 | 24 | 80 | 0.0 | 0.0 | 0.00 | 0.00 | 0.00 | 96 | 1007.9 |
| 20260509102905 | 24 | 80 | 0.0 | 0.0 | 0.00 | 0.00 | 0.00 | 96 | 1008.0 |
| 20260509100905 | 24 | 80 | 0.0 | 0.0 | 0.00 | 0.00 | 0.00 | 96 | 1007.9 |
| 20260509095405 | 24 | 80 | 0.0 | 0.0 | 0.00 | 0.00 | 0.00 | 96 | 1007.7 |
| 20260509094906 | 24 | 80 | 0.0 | 0.0 | 0.00 | 0.00 | 0.00 | 96 | 1007.6 |
| 20260509092906 | 24 | 80 | 0.0 | 0.0 | 0.00 | 0.00 | 0.00 | 96 | 1007.5 |
| 20260509085405 | 23 | 76 | 0.0 | 1.6 | 0.00 | 0.00 | 0.00 | 96 | 1007.3 |
| 20260509084905 | 23 | 106 | 0.0 | 0.0 | 0.00 | 0.00 | 0.00 | 96 | 1007.3 |
| 20260509084405 | 23 | 109 | 0.0 | 1.6 | 0.00 | 0.00 | 0.00 | 95 | 1007.4 |
| 20260509083905 | 23 | 113 | 0.0 | 0.0 | 0.00 | 0.00 | 0.00 | 95 | 1007.6 |
| 20260509081905 | 23 | 113 | 0.0 | 0.0 | 0.00 | 0.00 | 0.00 | 95 | 1007.4 |
| 20260509081406 | 23 | 113 | 0.0 | 0.0 | 0.00 | 0.00 | 0.00 | 95 | 1007.5 |
| 20260509080905 | 23 | 113 | 0.0 | 0.0 | 0.00 | 0.00 | 0.00 | 95 | 1007.4 |
| 20260509073905 | 23 | 113 | 0.0 | 0.0 | 0.00 | 0.00 | 0.00 | 95 | 1008.0 |
| 20260509073405 | 23 | 113 | 0.0 | 0.0 | 0.00 | 0.00 | 0.00 | 95 | 1008.0 |
| 20260509072905 | 23 | 113 | 0.0 | 0.0 | 0.00 | 0.00 | 0.00 | 95 | 1008.2 |
| 20260509064905 | 24 | 113 | 0.0 | 0.0 | 0.00 | 0.00 | 0.00 | 95 | 1007.9 |
| 20260509063905 | 24 | 113 | 0.0 | 3.2 | 0.00 | 0.00 | 0.00 | 95 | 1007.9 |
| 20260509061906 | 24 | 114 | 1.6 | 3.2 | 0.00 | 0.00 | 0.00 | 94 | 1008.3 |
| 20260509060405 | 24 | 114 | 1.6 | 4.8 | 0.00 | 0.00 | 0.00 | 95 | 1008.2 |
| 20260509055906 | 24 | 58 | 1.6 | 8.0 | 0.00 | 0.00 | 0.00 | 95 | 1008.2 |
| 20260509054405 | 25 | 117 | 6.4 | 11.3 | 0.00 | 0.00 | 0.00 | 95 | 1008.3 |
| 20260509053905 | 25 | 93 | 1.6 | 11.3 | 0.00 | 0.00 | 0.00 | 95 | 1008.3 |
| 20260509053406 | 25 | 102 | 4.8 | 12.9 | 0.00 | 0.00 | 0.00 | 95 | 1008.4 |
| 20260509052905 | 25 | 111 | 3.2 | 9.7 | 0.00 | 0.00 | 0.00 | 95 | 1008.4 |
| 20260509052405 | 25 | 118 | 3.2 | 8.0 | 0.00 | 0.00 | 0.00 | 95 | 1008.4 |
| 20260509051905 | 25 | 123 | 4.8 | 11.3 | 0.00 | 0.00 | 0.00 | 95 | 1008.4 |
| 20260509051405 | 24 | 92 | 4.8 | 8.0 | 0.00 | 0.00 | 0.00 | 95 | 1008.3 |
| 20260509050905 | 24 | 108 | 3.2 | 8.0 | 0.00 | 0.00 | 0.00 | 95 | 1008.4 |
| 20260509045905 | 24 | 62 | 3.2 | 4.8 | 0.00 | 0.00 | 0.00 | 94 | 1008.6 |